Terminal Aerodrome Forecast
Issued by NWS

Home | Current Version | Previous Version | Text Only | Print | Product List | Glossary On
Versions: 1 2 3 4 5 6 7 8 9 10 11 12 13 14
000
FTUS45 KABQ 272320
TAFFMN
TAF
KFMN 272320Z 2800/2824 32009KT P6SM VCTS BKN060CB OVC080
      TEMPO 2800/2802 -SHRA OVC060
     FM280200 34007KT P6SM VCSH BKN070 BKN090
     FM280800 08006KT P6SM BKN080 BKN100
     FM281500 12007KT P6SM BKN060
     FM281800 30006KT P6SM VCSH OVC060=

USA.gov is the U.S. government's official web portal to all federal, state and local government web resources and services.